createdAt,value
2022-09-12T00:00:11.832Z,99.90
2022-09-12T00:02:59.036Z,99.90
2022-09-12T00:05:46.573Z,99.90
2022-09-12T00:08:33.269Z,99.90
2022-09-12T00:11:20.042Z,99.90
2022-09-12T00:14:09.988Z,99.90
2022-09-12T00:16:59.249Z,99.90
2022-09-12T00:19:45.586Z,99.90
2022-09-12T00:22:32.114Z,99.90
2022-09-12T00:25:19.125Z,99.90
2022-09-12T00:28:05.605Z,99.90
2022-09-12T00:30:53.512Z,99.90
2022-09-12T00:33:40.441Z,99.90
2022-09-12T00:36:27.892Z,99.90
2022-09-12T00:39:17.414Z,99.90
2022-09-12T00:42:04.020Z,99.90
2022-09-12T00:44:53.828Z,99.90
2022-09-12T00:47:42.548Z,99.90
2022-09-12T00:50:29.528Z,99.90
2022-09-12T00:53:16.138Z,99.90
2022-09-12T00:56:03.157Z,99.90
2022-09-12T00:58:53.789Z,99.90
2022-09-12T01:01:43.424Z,99.90
2022-09-12T01:04:31.985Z,99.90
2022-09-12T01:07:19.032Z,99.90
2022-09-12T01:10:06.416Z,99.90
2022-09-12T01:12:52.785Z,99.90
2022-09-12T01:15:40.644Z,99.90
2022-09-12T01:18:33.215Z,99.90
2022-09-12T01:21:31.950Z,99.90
2022-09-12T01:24:52.763Z,99.90
2022-09-12T01:27:49.606Z,99.90
2022-09-12T01:30:48.469Z,99.90
2022-09-12T01:34:04.539Z,99.90
2022-09-12T01:37:00.217Z,99.90
2022-09-12T01:39:56.603Z,99.90
2022-09-12T01:42:52.101Z,99.90
2022-09-12T01:45:44.957Z,99.90
2022-09-12T01:48:37.842Z,99.90
2022-09-12T01:51:29.735Z,99.90
2022-09-12T01:54:21.267Z,99.90
2022-09-12T01:57:18.664Z,99.90
2022-09-12T02:00:10.614Z,99.90
2022-09-12T02:03:04.481Z,99.90
2022-09-12T02:06:01.703Z,99.90
2022-09-12T02:08:52.075Z,99.90
2022-09-12T02:11:43.835Z,99.90
2022-09-12T02:14:35.023Z,99.90
2022-09-12T02:17:24.480Z,99.90
2022-09-12T02:20:26.046Z,99.90
2022-09-12T02:23:28.470Z,99.90
2022-09-12T02:26:21.500Z,99.90
2022-09-12T02:29:10.019Z,99.90
2022-09-12T02:31:59.466Z,99.90
2022-09-12T02:34:52.386Z,99.90
2022-09-12T02:37:51.340Z,99.90
2022-09-12T02:40:39.581Z,99.90
2022-09-12T02:43:28.987Z,99.90
2022-09-12T02:46:21.879Z,99.90
2022-09-12T02:49:09.506Z,99.90
2022-09-12T02:51:56.721Z,99.90
2022-09-12T02:54:44.473Z,99.90
2022-09-12T02:57:33.087Z,99.90
2022-09-12T03:00:20.195Z,99.90
2022-09-12T03:03:25.254Z,99.90
2022-09-12T03:06:19.275Z,99.90
2022-09-12T03:09:14.805Z,99.90
2022-09-12T03:12:16.384Z,99.90
2022-09-12T03:15:28.795Z,99.90
2022-09-12T03:18:30.221Z,99.90
2022-09-12T03:21:25.444Z,99.90
2022-09-12T03:24:17.949Z,99.90
2022-09-12T03:27:10.882Z,99.90
2022-09-12T03:29:58.323Z,99.90
2022-09-12T03:32:48.121Z,99.90
2022-09-12T03:35:34.689Z,99.90
2022-09-12T03:38:21.119Z,99.90
2022-09-12T03:41:07.508Z,99.90
2022-09-12T03:43:54.068Z,99.90
2022-09-12T03:46:40.505Z,99.90
2022-09-12T03:49:28.121Z,99.90
2022-09-12T03:52:14.448Z,99.90
2022-09-12T03:55:01.052Z,99.90
2022-09-12T03:57:47.438Z,99.90
2022-09-12T04:00:34.205Z,99.90
2022-09-12T04:03:20.566Z,99.90
2022-09-12T04:06:09.611Z,99.90
2022-09-12T04:08:57.036Z,99.90
2022-09-12T04:11:43.241Z,99.90
2022-09-12T04:14:29.787Z,99.90
2022-09-12T04:17:16.370Z,99.90
2022-09-12T04:20:03.357Z,99.90
2022-09-12T04:22:51.203Z,99.90
2022-09-12T04:25:37.701Z,99.90
2022-09-12T04:28:24.644Z,99.90
2022-09-12T04:31:13.867Z,99.90
2022-09-12T04:34:02.136Z,99.90
2022-09-12T04:36:48.600Z,99.90
2022-09-12T04:39:36.431Z,99.90
2022-09-12T04:42:22.785Z,99.90
2022-09-12T04:45:09.697Z,99.90
2022-09-12T04:47:56.474Z,99.90
2022-09-12T04:50:42.973Z,99.90
2022-09-12T04:53:29.375Z,99.90
2022-09-12T04:56:17.796Z,99.90
2022-09-12T04:59:04.392Z,99.90
2022-09-12T05:01:51.128Z,99.90
2022-09-12T05:04:37.788Z,99.90
2022-09-12T05:07:24.408Z,99.90
2022-09-12T05:10:12.609Z,99.90
2022-09-12T05:13:00.473Z,99.90
2022-09-12T05:15:55.562Z,99.90
2022-09-12T05:18:42.898Z,99.90
2022-09-12T05:21:29.591Z,99.90
2022-09-12T05:24:16.245Z,99.90
2022-09-12T05:27:03.375Z,99.90
2022-09-12T05:29:51.334Z,99.90
2022-09-12T05:32:37.729Z,99.90
2022-09-12T05:35:24.197Z,99.90
2022-09-12T05:38:10.601Z,99.90
2022-09-12T05:41:06.137Z,99.90
2022-09-12T05:43:54.043Z,99.90
2022-09-12T05:46:43.525Z,99.90
2022-09-12T05:49:30.184Z,99.90
2022-09-12T05:52:17.162Z,99.90
2022-09-12T05:55:03.521Z,99.90
2022-09-12T05:57:49.840Z,99.90
2022-09-12T06:00:36.278Z,99.90
2022-09-12T06:03:24.040Z,99.90
2022-09-12T06:06:13.502Z,99.90
2022-09-12T06:09:01.823Z,99.90
2022-09-12T06:11:48.219Z,99.90
2022-09-12T06:14:34.904Z,99.90
2022-09-12T06:17:22.117Z,99.90
2022-09-12T06:20:10.497Z,99.90
2022-09-12T06:22:56.916Z,99.90
2022-09-12T06:25:48.745Z,99.90
2022-09-12T06:28:36.754Z,99.90
2022-09-12T06:31:25.599Z,99.90
2022-09-12T06:34:14.908Z,99.90
2022-09-12T06:37:03.871Z,99.90
2022-09-12T06:39:50.586Z,99.90
2022-09-12T06:42:37.609Z,99.90
2022-09-12T06:45:26.015Z,99.90
2022-09-12T06:48:12.254Z,99.90
2022-09-12T06:50:59.436Z,99.90
2022-09-12T06:53:48.559Z,99.90
2022-09-12T06:56:35.133Z,99.90
2022-09-12T06:59:21.673Z,99.90
2022-09-12T07:02:08.208Z,99.90
2022-09-12T07:04:54.883Z,99.90
2022-09-12T07:07:41.514Z,99.90
2022-09-12T07:10:30.880Z,99.90
2022-09-12T07:13:17.420Z,99.90
2022-09-12T07:16:05.393Z,99.90
2022-09-12T07:18:52.945Z,99.90
2022-09-12T07:21:40.962Z,99.90
2022-09-12T07:24:27.473Z,99.90
2022-09-12T07:27:15.586Z,99.90
2022-09-12T07:30:02.268Z,99.90
2022-09-12T07:32:48.562Z,99.90
2022-09-12T07:35:35.304Z,99.90
2022-09-12T07:38:21.875Z,99.90
2022-09-12T07:41:12.646Z,99.90
2022-09-12T07:44:02.169Z,99.90
2022-09-12T07:46:48.781Z,99.90
2022-09-12T07:49:35.998Z,99.90
2022-09-12T07:52:22.594Z,99.90
2022-09-12T07:55:09.590Z,99.90
2022-09-12T07:57:56.456Z,99.90
2022-09-12T08:00:45.867Z,99.90
2022-09-12T08:03:32.997Z,99.90
2022-09-12T08:06:23.912Z,99.90
2022-09-12T08:09:12.102Z,99.90
2022-09-12T08:11:59.010Z,99.90
2022-09-12T08:14:45.263Z,99.90
2022-09-12T08:17:33.078Z,99.90
2022-09-12T08:20:19.629Z,99.90
2022-09-12T08:23:06.042Z,99.90
2022-09-12T08:25:52.649Z,99.90
2022-09-12T08:28:41.017Z,99.90
2022-09-12T08:31:28.975Z,99.90
2022-09-12T08:34:19.106Z,99.90
2022-09-12T08:37:06.615Z,99.90
2022-09-12T08:39:53.661Z,99.90
2022-09-12T08:42:52.045Z,99.90
2022-09-12T08:45:50.154Z,99.60
2022-09-12T08:48:37.445Z,99.70
2022-09-12T08:51:26.054Z,99.50
2022-09-12T08:54:20.535Z,99.40
2022-09-12T08:57:10.297Z,99.20
2022-09-12T08:59:57.360Z,98.90
2022-09-12T09:03:25.012Z,98.80
2022-09-12T09:06:23.115Z,98.50
2022-09-12T09:09:20.720Z,98.30
2022-09-12T09:12:18.097Z,98.80
2022-09-12T09:15:35.533Z,98.20
2022-09-12T09:18:24.980Z,97.70
2022-09-12T09:21:15.892Z,97.10
2022-09-12T09:24:06.438Z,96.20
2022-09-12T09:26:58.656Z,96.60
2022-09-12T09:29:48.646Z,97.10
2022-09-12T09:32:39.076Z,96.50
2022-09-12T09:35:39.404Z,96.10
2022-09-12T09:38:35.811Z,95.40
2022-09-12T09:41:42.949Z,95.70
2022-09-12T09:44:31.783Z,96.50
2022-09-12T09:47:20.589Z,95.50
2022-09-12T09:50:07.804Z,95.80
2022-09-12T09:52:57.895Z,95.70
2022-09-12T09:55:45.623Z,95.30
2022-09-12T09:58:34.019Z,95.30
2022-09-12T10:01:22.233Z,94.30
2022-09-12T10:04:19.817Z,95.60
2022-09-12T10:07:06.939Z,95.90
2022-09-12T10:10:07.600Z,95.80
2022-09-12T10:13:09.062Z,95.80
2022-09-12T10:16:01.123Z,95.60
2022-09-12T10:18:51.001Z,95.10
2022-09-12T10:21:41.604Z,94.30
2022-09-12T10:24:31.721Z,95.60
2022-09-12T10:27:21.880Z,94.90
2022-09-12T10:30:18.365Z,94.70
2022-09-12T10:33:10.034Z,95.10
2022-09-12T10:36:04.473Z,95.20
2022-09-12T10:38:53.703Z,95.60
2022-09-12T10:41:41.979Z,95.00
2022-09-12T10:44:30.665Z,94.60
2022-09-12T10:47:22.568Z,95.20
2022-09-12T10:50:28.870Z,93.00
2022-09-12T10:53:22.080Z,92.90
2022-09-12T10:56:12.026Z,92.30
2022-09-12T10:59:12.151Z,92.80
2022-09-12T11:02:02.339Z,93.00
2022-09-12T11:05:01.301Z,92.70
2022-09-12T11:07:50.596Z,93.20
2022-09-12T11:10:49.316Z,91.10
2022-09-12T11:13:56.572Z,91.40
2022-09-12T11:16:54.071Z,91.10
2022-09-12T11:20:10.347Z,91.30
2022-09-12T11:23:15.057Z,90.40
2022-09-12T11:26:12.461Z,91.30
2022-09-12T11:29:12.240Z,90.60
2022-09-12T11:32:23.699Z,89.90
2022-09-12T11:35:20.148Z,87.90
2022-09-12T11:38:24.345Z,88.00
2022-09-12T11:41:19.227Z,89.20
2022-09-12T11:44:16.303Z,86.70
2022-09-12T11:47:06.064Z,86.00
2022-09-12T11:49:54.334Z,88.30
2022-09-12T11:52:40.773Z,89.30
2022-09-12T11:55:33.044Z,87.20
2022-09-12T11:58:25.783Z,82.60
2022-09-12T12:01:16.175Z,80.70
2022-09-12T12:04:08.858Z,82.90
2022-09-12T12:07:05.818Z,81.30
2022-09-12T12:09:55.114Z,81.60
2022-09-12T12:12:43.634Z,82.20
2022-09-12T12:15:32.442Z,79.20
2022-09-12T12:18:23.024Z,79.90
2022-09-12T12:21:27.660Z,80.20
2022-09-12T12:24:17.349Z,79.90
2022-09-12T12:27:05.104Z,81.60
2022-09-12T12:29:51.623Z,80.30
2022-09-12T12:32:39.953Z,79.90
2022-09-12T12:35:40.626Z,80.10
2022-09-12T12:38:29.813Z,79.90
2022-09-12T12:41:45.284Z,76.50
2022-09-12T12:44:59.408Z,81.80
2022-09-12T12:47:48.492Z,79.40
2022-09-12T12:50:35.332Z,77.10
2022-09-12T12:53:25.683Z,78.00
2022-09-12T12:56:30.518Z,78.50
2022-09-12T12:59:21.329Z,78.80
2022-09-12T13:02:08.365Z,78.50
2022-09-12T13:04:57.957Z,78.00
2022-09-12T13:07:45.479Z,76.70
2022-09-12T13:10:32.793Z,78.70
2022-09-12T13:13:26.213Z,77.30
2022-09-12T13:16:13.264Z,77.60
2022-09-12T13:19:05.116Z,78.20
2022-09-12T13:22:02.108Z,79.70
2022-09-12T13:24:52.274Z,78.60
2022-09-12T13:27:38.724Z,81.30
2022-09-12T13:30:25.037Z,80.60
2022-09-12T13:33:18.950Z,79.80
2022-09-12T13:36:24.880Z,80.40
2022-09-12T13:39:18.635Z,78.40
2022-09-12T13:42:38.959Z,77.20
2022-09-12T13:45:27.661Z,79.20
2022-09-12T13:48:17.719Z,82.20
2022-09-12T13:51:05.968Z,78.10
2022-09-12T13:53:56.208Z,79.70
2022-09-12T13:56:50.090Z,77.80
2022-09-12T13:59:40.912Z,77.90
2022-09-12T14:02:29.633Z,78.80
2022-09-12T14:05:21.229Z,77.90
2022-09-12T14:08:10.138Z,78.70
2022-09-12T14:10:56.582Z,80.10
2022-09-12T14:13:44.930Z,77.30
2022-09-12T14:16:39.186Z,78.30
2022-09-12T14:19:27.126Z,78.50
2022-09-12T14:22:18.088Z,78.40
2022-09-12T14:25:05.017Z,79.60
2022-09-12T14:27:54.976Z,76.40
2022-09-12T14:30:43.236Z,78.40
2022-09-12T14:33:32.527Z,78.40
2022-09-12T14:36:24.096Z,78.60
2022-09-12T14:39:20.437Z,78.60
2022-09-12T14:42:12.858Z,78.60
2022-09-12T14:45:02.388Z,78.10
2022-09-12T14:47:52.826Z,78.30
2022-09-12T14:50:39.410Z,77.90
2022-09-12T14:53:32.532Z,81.70
2022-09-12T14:56:22.354Z,81.80
2022-09-12T14:59:29.469Z,82.90
2022-09-12T15:02:25.845Z,78.20
2022-09-12T15:05:26.324Z,77.70
2022-09-12T15:08:16.026Z,80.00
2022-09-12T15:11:02.511Z,79.60
2022-09-12T15:13:48.888Z,79.60
2022-09-12T15:16:35.236Z,78.20
2022-09-12T15:19:21.558Z,78.20
2022-09-12T15:22:11.355Z,77.50
2022-09-12T15:24:57.993Z,79.20
2022-09-12T15:27:44.587Z,79.30
2022-09-12T15:30:31.373Z,80.00
2022-09-12T15:33:18.090Z,79.70
2022-09-12T15:36:05.167Z,87.70
2022-09-12T15:38:53.781Z,81.00
2022-09-12T15:41:42.448Z,79.70
2022-09-12T15:44:28.817Z,90.00
2022-09-12T15:47:15.425Z,81.70
2022-09-12T15:50:01.738Z,80.30
2022-09-12T15:52:47.997Z,80.50
2022-09-12T15:55:35.921Z,81.70
2022-09-12T15:58:22.462Z,81.00
2022-09-12T16:01:11.097Z,82.90
2022-09-12T16:03:58.016Z,80.20
2022-09-12T16:06:44.425Z,80.00
2022-09-12T16:09:30.710Z,79.40
2022-09-12T16:12:18.361Z,80.00
2022-09-12T16:15:05.853Z,78.20
2022-09-12T16:17:52.518Z,79.00
2022-09-12T16:20:40.897Z,80.10
2022-09-12T16:23:27.824Z,79.80
2022-09-12T16:26:14.615Z,80.40
2022-09-12T16:29:02.630Z,80.00
2022-09-12T16:31:49.038Z,83.20
2022-09-12T16:34:35.400Z,81.50
2022-09-12T16:37:21.701Z,82.10
2022-09-12T16:40:09.261Z,82.20
2022-09-12T16:42:55.847Z,83.90
2022-09-12T16:45:43.393Z,82.50
2022-09-12T16:48:29.973Z,83.10
2022-09-12T16:51:17.773Z,84.60
2022-09-12T16:54:04.639Z,86.30
2022-09-12T16:56:50.981Z,84.80
2022-09-12T16:59:37.423Z,87.70
2022-09-12T17:02:25.089Z,90.30
2022-09-12T17:05:12.023Z,91.60
2022-09-12T17:07:58.363Z,93.40
2022-09-12T17:10:44.708Z,93.50
2022-09-12T17:13:46.900Z,94.70
2022-09-12T17:16:40.146Z,94.80
2022-09-12T17:19:29.730Z,95.30
2022-09-12T17:22:16.592Z,95.90
2022-09-12T17:25:03.031Z,96.90
2022-09-12T17:27:49.644Z,97.60
2022-09-12T17:30:36.432Z,98.00
2022-09-12T17:33:23.082Z,98.80
2022-09-12T17:36:14.909Z,98.80
2022-09-12T17:39:03.465Z,99.30
2022-09-12T17:41:51.822Z,99.90
2022-09-12T17:44:38.673Z,99.90
2022-09-12T17:47:25.204Z,99.90
2022-09-12T17:50:30.934Z,99.90
2022-09-12T17:53:20.210Z,99.90
2022-09-12T17:56:07.583Z,99.90
2022-09-12T17:58:54.281Z,99.90
2022-09-12T18:01:54.979Z,99.90
2022-09-12T18:04:45.698Z,99.90
2022-09-12T18:07:33.162Z,99.90
2022-09-12T18:10:21.062Z,99.90
2022-09-12T18:13:07.940Z,99.90
2022-09-12T18:15:54.675Z,99.90
2022-09-12T18:18:41.028Z,99.90
2022-09-12T18:21:28.141Z,99.90
2022-09-12T18:24:15.275Z,99.90
2022-09-12T18:27:03.884Z,99.90
2022-09-12T18:30:10.430Z,99.90
2022-09-12T18:32:56.624Z,99.90
2022-09-12T18:35:43.009Z,99.90
2022-09-12T18:38:29.452Z,99.90
2022-09-12T18:41:17.700Z,99.90
2022-09-12T18:44:05.604Z,99.90
2022-09-12T18:46:52.780Z,99.90
2022-09-12T18:49:39.173Z,99.90
2022-09-12T18:52:25.778Z,99.90
2022-09-12T18:55:12.365Z,99.90
2022-09-12T18:57:58.896Z,99.90
2022-09-12T19:00:48.273Z,99.90
2022-09-12T19:03:35.169Z,99.90
2022-09-12T19:06:23.224Z,99.90
2022-09-12T19:09:13.779Z,99.90
2022-09-12T19:12:00.627Z,99.90
2022-09-12T19:14:46.992Z,99.90
2022-09-12T19:17:34.692Z,99.90
2022-09-12T19:20:21.085Z,99.90
2022-09-12T19:23:07.418Z,99.90
2022-09-12T19:25:57.543Z,99.90
2022-09-12T19:28:44.578Z,99.90
2022-09-12T19:31:31.761Z,99.90
2022-09-12T19:34:19.989Z,99.90
2022-09-12T19:37:06.453Z,99.90
2022-09-12T19:39:53.132Z,99.90
2022-09-12T19:42:39.993Z,99.90
2022-09-12T19:45:26.422Z,99.90
2022-09-12T19:48:13.030Z,99.90
2022-09-12T19:51:02.004Z,99.90
2022-09-12T19:53:50.135Z,99.90
2022-09-12T19:56:36.676Z,99.90
2022-09-12T19:59:22.938Z,99.90
2022-09-12T20:02:09.394Z,99.90
2022-09-12T20:04:56.277Z,99.90
2022-09-12T20:07:44.201Z,99.90
2022-09-12T20:10:30.833Z,99.90
2022-09-12T20:13:17.380Z,99.90
2022-09-12T20:16:08.360Z,99.90
2022-09-12T20:18:56.617Z,99.90
2022-09-12T20:21:43.016Z,99.90
2022-09-12T20:24:31.046Z,99.90
2022-09-12T20:27:17.509Z,99.90
2022-09-12T20:30:04.882Z,99.90
2022-09-12T20:32:51.708Z,99.90
2022-09-12T20:35:38.099Z,99.90
2022-09-12T20:38:24.621Z,99.90
2022-09-12T20:41:13.323Z,99.90
2022-09-12T20:44:00.364Z,99.90
2022-09-12T20:46:47.022Z,99.90
2022-09-12T20:49:33.808Z,99.90
2022-09-12T20:52:20.310Z,99.90
2022-09-12T20:55:07.554Z,99.90
2022-09-12T20:57:55.697Z,99.90
2022-09-12T21:00:42.064Z,99.90
2022-09-12T21:03:28.369Z,99.90
2022-09-12T21:06:16.882Z,99.90
2022-09-12T21:09:03.639Z,99.90
2022-09-12T21:11:50.310Z,99.90
2022-09-12T21:14:38.313Z,99.90
2022-09-12T21:17:25.076Z,99.90
2022-09-12T21:20:12.614Z,99.90
2022-09-12T21:22:58.940Z,99.90
2022-09-12T21:25:52.162Z,99.90
2022-09-12T21:28:39.837Z,99.90
2022-09-12T21:31:28.026Z,99.90
2022-09-12T21:34:14.679Z,99.90
2022-09-12T21:37:01.217Z,99.90
2022-09-12T21:39:47.623Z,99.90
2022-09-12T21:42:33.980Z,99.90
2022-09-12T21:45:21.086Z,99.90
2022-09-12T21:48:09.657Z,99.90
2022-09-12T21:50:56.467Z,99.90
2022-09-12T21:53:42.836Z,99.90
2022-09-12T21:56:29.581Z,99.90
2022-09-12T21:59:15.885Z,99.90
2022-09-12T22:02:02.393Z,99.90
2022-09-12T22:04:50.513Z,99.90
2022-09-12T22:07:37.405Z,99.90
2022-09-12T22:10:25.040Z,99.90
2022-09-12T22:13:11.582Z,99.90
2022-09-12T22:15:58.120Z,99.90
2022-09-12T22:18:46.478Z,99.90
2022-09-12T22:21:34.497Z,99.90
2022-09-12T22:24:28.610Z,99.90
2022-09-12T22:27:15.210Z,99.90
2022-09-12T22:30:01.740Z,99.90
2022-09-12T22:32:49.606Z,99.90
2022-09-12T22:35:36.170Z,99.90
2022-09-12T22:38:25.994Z,99.90
2022-09-12T22:41:13.353Z,99.90
2022-09-12T22:44:00.084Z,99.90
2022-09-12T22:46:46.897Z,99.90
2022-09-12T22:49:33.761Z,99.90
2022-09-12T22:52:20.132Z,99.90
2022-09-12T22:55:08.616Z,99.90
2022-09-12T22:57:55.186Z,99.90
2022-09-12T23:00:46.397Z,99.90
2022-09-12T23:03:32.824Z,99.90
2022-09-12T23:06:19.452Z,99.90
2022-09-12T23:09:05.804Z,99.90
2022-09-12T23:11:53.407Z,99.90
2022-09-12T23:23:42.947Z,99.90
2022-09-12T23:26:29.569Z,99.90
2022-09-12T23:29:17.242Z,99.90
2022-09-12T23:32:04.281Z,99.90
2022-09-12T23:34:50.555Z,99.90
2022-09-12T23:37:36.861Z,99.90
2022-09-12T23:40:23.352Z,99.90
2022-09-12T23:43:10.117Z,99.90
2022-09-12T23:45:58.387Z,99.90
2022-09-12T23:48:45.610Z,99.90
2022-09-12T23:51:32.072Z,99.90
2022-09-12T23:54:18.454Z,99.90
2022-09-12T23:57:04.861Z,99.90
2022-09-12T23:59:51.305Z,99.90
